createdAt,value
2023-01-29T00:01:44.563Z,-0.12
2023-01-29T00:04:46.186Z,-0.16
2023-01-29T00:07:48.313Z,-0.26
2023-01-29T00:10:49.909Z,-0.19
2023-01-29T00:13:52.685Z,-0.22
2023-01-29T00:16:54.323Z,-0.21
2023-01-29T00:19:55.918Z,-0.15
2023-01-29T00:22:57.575Z,-0.11
2023-01-29T00:26:02.180Z,-0.16
2023-01-29T00:29:05.918Z,-0.12
2023-01-29T00:32:07.662Z,-0.11
2023-01-29T00:35:12.177Z,-0.11
2023-01-29T00:38:14.751Z,-0.11
2023-01-29T00:41:34.901Z,-0.10
2023-01-29T00:44:55.253Z,-0.08
2023-01-29T00:47:56.895Z,-0.13
2023-01-29T00:50:58.537Z,-0.17
2023-01-29T00:54:00.713Z,-0.15
2023-01-29T00:57:03.578Z,-0.15
2023-01-29T01:00:07.617Z,-0.19
2023-01-29T01:03:10.380Z,-0.24
2023-01-29T01:06:12.016Z,-0.29
2023-01-29T01:09:32.309Z,-0.29
2023-01-29T01:12:36.200Z,-0.28
2023-01-29T01:15:39.558Z,-0.25
2023-01-29T01:18:42.060Z,-0.29
2023-01-29T01:21:45.508Z,-0.26
2023-01-29T01:24:47.216Z,-0.34
2023-01-29T01:27:53.369Z,-0.34
2023-01-29T01:30:55.081Z,-0.36
2023-01-29T01:33:56.772Z,-0.46
2023-01-29T01:36:58.478Z,-0.37
2023-01-29T01:40:00.190Z,-0.38
2023-01-29T01:43:02.488Z,-0.42
2023-01-29T01:46:04.400Z,-0.43
2023-01-29T01:49:09.919Z,-0.45
2023-01-29T01:52:16.488Z,-0.49
2023-01-29T01:55:23.751Z,-0.53
2023-01-29T01:58:33.904Z,-0.47
2023-01-29T02:01:36.004Z,-0.50
2023-01-29T02:05:06.580Z,-0.53
2023-01-29T02:08:27.934Z,-0.54
2023-01-29T02:11:30.577Z,-0.46
2023-01-29T02:14:34.625Z,-0.51
2023-01-29T02:17:36.556Z,-0.58
2023-01-29T02:20:41.348Z,-0.57
2023-01-29T02:24:15.633Z,-0.61
2023-01-29T02:27:25.764Z,-0.65
2023-01-29T02:30:40.367Z,-0.63
2023-01-29T02:33:55.905Z,-0.65
2023-01-29T02:37:04.584Z,-0.61
2023-01-29T02:40:38.727Z,-0.64
2023-01-29T02:43:55.721Z,-0.64
2023-01-29T02:47:20.431Z,-0.60
2023-01-29T02:50:46.872Z,-0.62
2023-01-29T02:53:59.894Z,-0.61
2023-01-29T02:57:15.033Z,-0.68
2023-01-29T03:00:27.812Z,-0.62
2023-01-29T03:03:36.638Z,-0.60
2023-01-29T03:06:43.838Z,-0.62
2023-01-29T03:09:51.497Z,-0.58
2023-01-29T03:13:13.451Z,-0.63
2023-01-29T03:16:41.673Z,-0.64
2023-01-29T03:19:46.863Z,-0.67
2023-01-29T03:23:04.978Z,-0.66
2023-01-29T03:26:25.440Z,-0.68
2023-01-29T03:29:50.261Z,-0.73
2023-01-29T03:32:54.124Z,-0.70
2023-01-29T03:36:02.559Z,-0.69
2023-01-29T03:39:09.518Z,-0.71
2023-01-29T03:42:11.329Z,-0.70
2023-01-29T03:45:50.139Z,-0.72
2023-01-29T03:48:59.452Z,-0.73
2023-01-29T03:52:13.998Z,-0.78
2023-01-29T03:55:20.466Z,-0.78
2023-01-29T03:58:35.909Z,-0.80
2023-01-29T04:01:47.531Z,-0.80
2023-01-29T04:04:53.164Z,-0.84
2023-01-29T04:08:05.071Z,-0.80
2023-01-29T04:11:14.329Z,-0.90
2023-01-29T04:14:17.511Z,-0.81
2023-01-29T04:17:33.722Z,-0.78
2023-01-29T04:20:43.527Z,-0.79
2023-01-29T04:23:45.244Z,-0.77
2023-01-29T04:27:20.906Z,-0.81
2023-01-29T04:30:34.836Z,-0.91
2023-01-29T04:33:48.020Z,-0.87
2023-01-29T04:37:20.765Z,-0.87
2023-01-29T04:40:47.523Z,-0.83
2023-01-29T04:44:05.015Z,-0.86
2023-01-29T04:47:39.743Z,-0.86
2023-01-29T04:51:01.919Z,-0.85
2023-01-29T04:54:03.499Z,-0.83
2023-01-29T04:57:27.798Z,-0.83
2023-01-29T05:00:43.112Z,-0.87
2023-01-29T05:03:49.969Z,-0.95
2023-01-29T05:06:52.568Z,-0.91
2023-01-29T05:09:55.382Z,-0.93
2023-01-29T05:13:02.079Z,-1.04
2023-01-29T05:16:14.649Z,-1.12
2023-01-29T05:19:17.268Z,-1.16
2023-01-29T05:22:22.698Z,-1.13
2023-01-29T05:25:30.137Z,-1.11
2023-01-29T05:28:31.984Z,-1.20
2023-01-29T05:31:33.735Z,-1.19
2023-01-29T05:34:35.451Z,-1.21
2023-01-29T05:37:37.029Z,-1.14
2023-01-29T05:40:38.926Z,-1.16
2023-01-29T05:43:40.519Z,-1.12
2023-01-29T05:46:44.086Z,-1.20
2023-01-29T05:49:45.743Z,-1.19
2023-01-29T05:52:47.368Z,-1.25
2023-01-29T05:55:49.546Z,-1.22
2023-01-29T05:58:51.356Z,-1.23
2023-01-29T06:01:52.973Z,-1.27
2023-01-29T06:04:54.581Z,-1.21
2023-01-29T06:07:56.308Z,-1.23
2023-01-29T06:10:57.921Z,-1.32
2023-01-29T06:13:59.567Z,-1.28
2023-01-29T06:17:01.237Z,-1.26
2023-01-29T06:20:02.848Z,-1.37
2023-01-29T06:23:04.490Z,-1.31
2023-01-29T06:26:08.695Z,-1.35
2023-01-29T06:29:10.422Z,-1.38
2023-01-29T06:32:12.093Z,-1.41
2023-01-29T06:35:13.788Z,-1.38
2023-01-29T06:38:15.430Z,-1.40
2023-01-29T06:41:18.625Z,-1.39
2023-01-29T06:44:20.343Z,-1.38
2023-01-29T06:47:22.416Z,-1.36
2023-01-29T06:50:24.036Z,-1.34
2023-01-29T06:53:25.891Z,-1.35
2023-01-29T06:56:27.563Z,-1.43
2023-01-29T06:59:29.265Z,-1.45
2023-01-29T07:02:30.935Z,-1.35
2023-01-29T07:05:32.652Z,-1.36
2023-01-29T07:08:38.848Z,-1.36
2023-01-29T07:11:40.724Z,-1.34
2023-01-29T07:14:42.299Z,-1.29
2023-01-29T07:17:43.884Z,-1.22
2023-01-29T07:20:45.509Z,-1.16
2023-01-29T07:23:47.227Z,-1.11
2023-01-29T07:26:48.787Z,-1.10
2023-01-29T07:29:50.554Z,-1.09
2023-01-29T07:32:52.169Z,-1.07
2023-01-29T07:35:54.053Z,-1.04
2023-01-29T07:38:55.964Z,-1.00
2023-01-29T07:41:57.728Z,-0.94
2023-01-29T07:45:01.971Z,-0.94
2023-01-29T07:48:05.190Z,-0.96
2023-01-29T07:51:07.192Z,-0.98
2023-01-29T07:54:08.823Z,-0.84
2023-01-29T07:57:10.503Z,-0.75
2023-01-29T08:00:14.669Z,-0.76
2023-01-29T08:03:20.022Z,-0.72
2023-01-29T08:06:21.675Z,-0.76
2023-01-29T08:09:23.334Z,-0.71
2023-01-29T08:12:24.964Z,-0.72
2023-01-29T08:15:27.245Z,-0.71
2023-01-29T08:18:28.927Z,-0.72
2023-01-29T08:21:30.551Z,-0.64
2023-01-29T08:24:47.432Z,-0.55
2023-01-29T08:27:54.051Z,-0.62
2023-01-29T08:30:55.743Z,-0.69
2023-01-29T08:33:58.853Z,-0.57
2023-01-29T08:37:00.400Z,-0.49
2023-01-29T08:40:05.065Z,-0.48
2023-01-29T08:43:09.147Z,-0.50
2023-01-29T08:46:11.112Z,-0.49
2023-01-29T08:49:12.857Z,-0.40
2023-01-29T08:52:14.430Z,-0.39
2023-01-29T08:55:16.382Z,-0.30
2023-01-29T08:58:18.538Z,-0.32
2023-01-29T09:01:20.240Z,-0.27
2023-01-29T09:04:22.384Z,-0.26
2023-01-29T09:07:24.103Z,-0.26
2023-01-29T09:10:26.203Z,-0.26
2023-01-29T09:13:27.831Z,-0.30
2023-01-29T09:16:29.413Z,-0.23
2023-01-29T09:19:31.054Z,-0.04
2023-01-29T09:22:32.639Z,0.03
2023-01-29T09:25:34.577Z,0.15
2023-01-29T09:28:36.163Z,0.20
2023-01-29T09:31:37.927Z,0.17
2023-01-29T09:34:40.190Z,0.32
2023-01-29T09:37:41.875Z,0.42
2023-01-29T09:41:06.191Z,0.61
2023-01-29T09:44:18.026Z,0.47
2023-01-29T09:47:21.298Z,0.49
2023-01-29T09:50:43.147Z,0.42
2023-01-29T09:53:58.184Z,0.47
2023-01-29T09:57:00.722Z,0.60
2023-01-29T10:00:05.453Z,0.49
2023-01-29T10:03:41.811Z,0.79
2023-01-29T10:06:43.395Z,0.65
2023-01-29T10:10:03.829Z,0.79
2023-01-29T10:13:14.548Z,0.89
2023-01-29T10:16:35.373Z,0.94
2023-01-29T10:20:10.257Z,1.08
2023-01-29T10:23:29.918Z,0.94
2023-01-29T10:26:34.234Z,1.11
2023-01-29T10:29:36.134Z,1.27
2023-01-29T10:32:38.276Z,1.25
2023-01-29T10:35:43.777Z,1.40
2023-01-29T10:38:51.059Z,1.23
2023-01-29T10:42:19.717Z,1.15
2023-01-29T10:45:46.049Z,1.39
2023-01-29T10:49:00.571Z,1.45
2023-01-29T10:52:33.112Z,1.51
2023-01-29T10:55:54.628Z,1.35
2023-01-29T10:59:09.225Z,1.52
2023-01-29T11:02:19.805Z,1.69
2023-01-29T11:05:35.505Z,1.78
2023-01-29T11:09:00.120Z,1.90
2023-01-29T11:12:16.927Z,1.82
2023-01-29T11:15:24.653Z,1.96
2023-01-29T11:18:26.289Z,1.99
2023-01-29T11:21:29.742Z,2.02
2023-01-29T11:24:31.409Z,2.04
2023-01-29T11:27:35.486Z,2.01
2023-01-29T11:30:41.809Z,2.18
2023-01-29T11:33:44.776Z,2.13
2023-01-29T11:36:46.991Z,2.35
2023-01-29T11:39:48.666Z,2.47
2023-01-29T11:42:52.923Z,2.30
2023-01-29T11:45:58.668Z,2.41
2023-01-29T11:49:14.034Z,2.39
2023-01-29T11:52:23.883Z,2.35
2023-01-29T11:55:44.358Z,2.33
2023-01-29T11:58:55.394Z,2.51
2023-01-29T12:02:06.842Z,2.51
2023-01-29T12:05:17.855Z,2.72
2023-01-29T12:08:21.651Z,2.61
2023-01-29T12:11:30.737Z,2.66
2023-01-29T12:14:34.315Z,2.73
2023-01-29T12:17:39.550Z,3.03
2023-01-29T12:20:56.134Z,2.93
2023-01-29T12:24:36.695Z,2.73
2023-01-29T12:28:04.169Z,2.75
2023-01-29T12:31:19.344Z,2.56
2023-01-29T12:34:27.375Z,2.33
2023-01-29T12:37:56.673Z,2.63
2023-01-29T12:41:01.181Z,2.83
2023-01-29T12:44:10.886Z,2.87
2023-01-29T12:47:23.309Z,2.95
2023-01-29T12:50:32.500Z,3.22
2023-01-29T12:54:04.708Z,3.43
2023-01-29T12:57:20.648Z,3.32
2023-01-29T13:00:25.970Z,3.47
2023-01-29T13:03:45.523Z,3.67
2023-01-29T13:06:54.271Z,3.63
2023-01-29T13:10:10.631Z,3.73
2023-01-29T13:13:22.103Z,2.70
2023-01-29T13:16:28.024Z,2.52
2023-01-29T13:19:35.137Z,2.54
2023-01-29T13:22:40.527Z,2.52
2023-01-29T13:25:43.137Z,2.53
2023-01-29T13:28:45.255Z,2.73
2023-01-29T13:31:49.717Z,2.92
2023-01-29T13:34:55.427Z,3.16
2023-01-29T13:37:57.119Z,3.53
2023-01-29T13:41:08.749Z,3.50
2023-01-29T13:44:29.610Z,3.08
2023-01-29T13:47:37.940Z,3.21
2023-01-29T13:50:42.906Z,2.97
2023-01-29T13:53:55.259Z,2.62
2023-01-29T13:57:01.637Z,2.68
2023-01-29T14:00:31.033Z,2.59
2023-01-29T14:04:02.205Z,2.27
2023-01-29T14:07:43.559Z,2.56
2023-01-29T14:10:45.110Z,2.56
2023-01-29T14:13:49.302Z,2.65
2023-01-29T14:16:50.968Z,2.37
2023-01-29T14:20:02.190Z,2.47
2023-01-29T14:23:05.002Z,2.20
2023-01-29T14:26:18.417Z,2.41
2023-01-29T14:29:39.738Z,2.28
2023-01-29T14:32:41.549Z,2.28
2023-01-29T14:35:51.112Z,2.07
2023-01-29T14:38:54.434Z,2.20
2023-01-29T14:41:57.499Z,2.31
2023-01-29T14:45:11.504Z,2.27
2023-01-29T14:48:13.111Z,2.40
2023-01-29T14:51:17.875Z,2.43
2023-01-29T14:54:30.228Z,2.62
2023-01-29T14:57:32.248Z,2.50
2023-01-29T15:00:39.629Z,2.47
2023-01-29T15:03:49.797Z,2.52
2023-01-29T15:07:11.619Z,2.31
2023-01-29T15:10:23.380Z,2.66
2023-01-29T15:13:36.249Z,2.31
2023-01-29T15:16:51.632Z,2.13
2023-01-29T15:19:53.291Z,2.07
2023-01-29T15:22:54.981Z,2.18
2023-01-29T15:26:01.662Z,2.27
2023-01-29T15:29:05.877Z,2.41
2023-01-29T15:32:08.229Z,2.43
2023-01-29T15:35:37.124Z,2.31
2023-01-29T15:38:38.775Z,2.19
2023-01-29T15:41:40.425Z,2.21
2023-01-29T15:44:46.596Z,2.02
2023-01-29T15:47:48.773Z,1.84
2023-01-29T15:50:54.667Z,1.72
2023-01-29T15:54:04.883Z,1.70
2023-01-29T15:57:06.795Z,1.71
2023-01-29T16:00:22.227Z,1.43
2023-01-29T16:03:26.402Z,1.20
2023-01-29T16:06:38.021Z,1.00
2023-01-29T16:09:39.943Z,0.87
2023-01-29T16:12:41.828Z,0.74
2023-01-29T16:16:06.380Z,0.64
2023-01-29T16:19:22.020Z,0.48
2023-01-29T16:22:25.146Z,0.35
2023-01-29T16:25:30.132Z,0.19
2023-01-29T16:28:31.932Z,0.04
2023-01-29T16:31:36.145Z,0.02
2023-01-29T16:34:44.153Z,-0.08
2023-01-29T16:37:50.868Z,-0.15
2023-01-29T16:41:11.443Z,-0.23
2023-01-29T16:44:15.753Z,-0.30
2023-01-29T16:47:28.241Z,-0.37
2023-01-29T16:50:46.166Z,-0.45
2023-01-29T16:54:02.240Z,-0.45
2023-01-29T16:57:03.845Z,-0.48
2023-01-29T17:00:29.459Z,-0.50
2023-01-29T17:03:33.782Z,-0.56
2023-01-29T17:06:36.236Z,-0.56
2023-01-29T17:09:38.305Z,-0.61
2023-01-29T17:12:39.892Z,-0.58
2023-01-29T17:15:43.041Z,-0.64
2023-01-29T17:18:44.691Z,-0.76
2023-01-29T17:21:47.355Z,-0.71
2023-01-29T17:24:51.499Z,-0.72
2023-01-29T17:27:53.345Z,-0.66
2023-01-29T17:31:05.818Z,-0.71
2023-01-29T17:34:14.135Z,-0.72
2023-01-29T17:37:16.366Z,-0.75
2023-01-29T17:40:41.138Z,-0.70
2023-01-29T17:43:44.205Z,-0.82
2023-01-29T17:46:47.359Z,-0.81
2023-01-29T17:49:49.182Z,-0.83
2023-01-29T17:52:50.880Z,-0.82
2023-01-29T17:55:52.436Z,-0.78
2023-01-29T17:58:54.028Z,-0.74
2023-01-29T18:01:55.868Z,-0.71
2023-01-29T18:04:57.451Z,-0.68
2023-01-29T18:07:59.097Z,-0.73
2023-01-29T18:11:01.189Z,-0.73
2023-01-29T18:14:14.184Z,-0.79
2023-01-29T18:17:22.199Z,-0.75
2023-01-29T18:20:25.753Z,-0.80
2023-01-29T18:23:29.505Z,-0.88
2023-01-29T18:26:31.164Z,-0.90
2023-01-29T18:29:32.809Z,-0.96
2023-01-29T18:32:34.640Z,-0.76
2023-01-29T18:35:36.278Z,-0.77
2023-01-29T18:38:37.833Z,-0.73
2023-01-29T18:41:39.446Z,-0.61
2023-01-29T18:44:41.013Z,-0.61
2023-01-29T18:47:42.606Z,-0.60
2023-01-29T18:50:44.228Z,-0.68
2023-01-29T18:53:49.980Z,-0.66
2023-01-29T18:57:12.962Z,-0.61
2023-01-29T19:00:13.877Z,-0.49
2023-01-29T19:03:15.552Z,-0.51
2023-01-29T19:06:17.170Z,-0.61
2023-01-29T19:09:18.842Z,-0.56
2023-01-29T19:12:22.343Z,-0.69
2023-01-29T19:15:24.005Z,-0.74
2023-01-29T19:18:26.480Z,-0.64
2023-01-29T19:21:28.461Z,-0.46
2023-01-29T19:24:30.059Z,-0.44
2023-01-29T19:27:31.671Z,-0.29
2023-01-29T19:30:33.730Z,-0.11
2023-01-29T19:33:35.789Z,0.06
2023-01-29T19:36:37.493Z,-0.54
2023-01-29T19:39:39.088Z,-0.61
2023-01-29T19:42:41.329Z,-0.76
2023-01-29T19:45:49.467Z,-0.75
2023-01-29T19:48:54.555Z,-0.75
2023-01-29T19:51:58.814Z,-0.77
2023-01-29T19:55:01.757Z,-0.77
2023-01-29T19:58:04.716Z,-0.66
2023-01-29T20:01:13.755Z,-0.80
2023-01-29T20:04:15.416Z,-0.85
2023-01-29T20:07:17.148Z,-1.02
2023-01-29T20:10:19.148Z,-1.03
2023-01-29T20:13:20.976Z,-0.96
2023-01-29T20:16:22.810Z,-0.95
2023-01-29T20:19:24.508Z,-0.97
2023-01-29T20:22:26.823Z,-0.84
2023-01-29T20:25:29.227Z,-0.85
2023-01-29T20:28:30.841Z,-0.88
2023-01-29T20:31:32.461Z,-1.01
2023-01-29T20:34:34.501Z,-0.82
2023-01-29T20:37:36.107Z,-0.86
2023-01-29T20:40:37.793Z,-0.90
2023-01-29T20:43:39.682Z,-0.74
2023-01-29T20:46:42.465Z,-0.46
2023-01-29T20:49:44.147Z,-0.54
2023-01-29T20:52:46.022Z,-0.81
2023-01-29T20:55:47.771Z,-0.87
2023-01-29T20:58:49.577Z,-0.83
2023-01-29T21:01:51.355Z,-0.35
2023-01-29T21:04:53.035Z,-0.71
2023-01-29T21:07:55.554Z,-0.92
2023-01-29T21:10:57.222Z,-1.00
2023-01-29T21:13:58.918Z,-0.95
2023-01-29T21:17:01.260Z,-1.15
2023-01-29T21:20:04.311Z,-0.94
2023-01-29T21:23:07.180Z,-1.09
2023-01-29T21:26:09.138Z,-1.18
2023-01-29T21:29:12.138Z,-1.25
2023-01-29T21:32:13.909Z,-1.23
2023-01-29T21:35:15.809Z,-1.13
2023-01-29T21:38:17.432Z,-1.29
2023-01-29T21:41:19.012Z,-1.33
2023-01-29T21:44:20.735Z,-1.09
2023-01-29T21:47:22.421Z,-1.08
2023-01-29T21:50:24.101Z,-1.00
2023-01-29T21:53:25.964Z,-1.11
2023-01-29T21:56:27.594Z,-1.18
2023-01-29T21:59:29.355Z,-1.26
2023-01-29T22:02:32.150Z,-1.35
2023-01-29T22:05:34.403Z,-1.31
2023-01-29T22:08:36.017Z,-1.38
2023-01-29T22:11:37.755Z,-1.37
2023-01-29T22:14:39.453Z,-1.37
2023-01-29T22:17:41.683Z,-1.46
2023-01-29T22:20:43.352Z,-1.42
2023-01-29T22:23:49.381Z,-1.49
2023-01-29T22:26:51.360Z,-1.43
2023-01-29T22:29:52.946Z,-1.57
2023-01-29T22:32:54.560Z,-1.59
2023-01-29T22:35:56.797Z,-1.61
2023-01-29T22:38:58.519Z,-1.69
2023-01-29T22:42:00.244Z,-1.70
2023-01-29T22:45:01.968Z,-1.72
2023-01-29T22:48:03.758Z,-1.63
2023-01-29T22:51:11.776Z,-1.72
2023-01-29T22:54:15.463Z,-1.67
2023-01-29T22:57:17.136Z,-1.71
2023-01-29T23:00:19.731Z,-1.75
2023-01-29T23:03:21.536Z,-1.88
2023-01-29T23:06:23.469Z,-1.74
2023-01-29T23:09:25.039Z,-1.81
2023-01-29T23:12:26.693Z,-1.92
2023-01-29T23:15:28.374Z,-1.96
2023-01-29T23:18:29.936Z,-1.95
2023-01-29T23:21:31.545Z,-2.09
2023-01-29T23:24:33.239Z,-1.99
2023-01-29T23:27:34.872Z,-1.82
2023-01-29T23:30:36.503Z,-1.84
2023-01-29T23:33:38.507Z,-1.77
2023-01-29T23:36:40.139Z,-1.70
2023-01-29T23:39:41.795Z,-1.71
2023-01-29T23:42:43.393Z,-1.59
2023-01-29T23:45:45.016Z,-1.34
2023-01-29T23:48:46.666Z,-1.17
2023-01-29T23:51:49.781Z,-0.80
2023-01-29T23:54:51.396Z,-0.82
2023-01-29T23:57:53.783Z,-0.77
